• Join FlightAware (Why Join?)
  • Login
  • US Flag 
09:22AM EDT


 

Airport Tracker/Info


-or-


 

Live Flight TrackerFlight Track Log ✈ EJM19 ✈ 08-Jul-2013 ✈ KMVY - KTEB

Flight Track Log - Related Links

Times and Time Zones

All times are in EDT time to prevent confusion due to time zone crossing. See the EJM19 flight status page for this flight to view local times or setup timezone preferences in your user account.

Time Position Orientation Groundspeed Altitude Reporting Facility
EDT Latitude Longitude Course Direction KTS MPH feet Rate Location/Type
10:24AM 41.3517 -70.7367 294° West 225 259 9,700  Level Boston Center
10:25AM 41.4314 -70.7706 342° North 253 291 10,500 2,280 Climbing Boston Center
10:26AM 41.4894 -70.8828 305° West 293 337 14,800 2,700 Climbing Boston Center
10:27AM 41.5303 -70.9786 300° West 324 373 16,000 600 Climbing Boston Center
10:28AM 41.6564 -71.2577 298° West  Level FlightAware Approximate
10:28AM 41.5858 -71.1050 300° West 354 407 16,000  Level Boston Center
10:29AM 41.6308 -71.2069 301° West 360 414 16,000  Level Boston Center
10:30AM 41.6842 -71.3339 299° West 360 414 16,000  Level Boston Center
10:31AM 41.7311 -71.4358 302° West 360 414 16,000  Level Boston Center
10:32AM 41.7989 -71.5600 306° West 371 427 16,000  Level Boston Center
10:33AM 41.8600 -71.6708 307° West 377 434 16,000  Level Boston Center
10:34AM 41.9211 -71.7789 307° West 377 434 16,000  Level Boston Center
10:35AM 41.9697 -71.8956 299° West 377 434 16,000  Level Boston Center
10:36AM 41.9975 -72.0211 287° West 358 412 16,000  Level Boston Center
10:37AM 42.0247 -72.1356 288° West 351 404 16,000  Level Boston Center
10:38AM 42.0586 -72.2750 288° West 357 411 16,000  Level Boston Center
10:39AM 42.0856 -72.3869 288° West 357 411 16,000  Level Boston Center
10:40AM 42.1189 -72.5242 288° West 357 411 16,000  Level Boston Center
10:41AM 42.1439 -72.6361 287° West 357 411 16,000  Level Boston Center
10:42AM 42.1581 -72.7650 278° West 357 411 16,000  Level Boston Center
10:43AM 42.1494 -72.9050 265° West 346 398 16,000  Level Boston Center
10:44AM 42.1425 -73.0225 265° West 351 404 16,000 -480 Level Boston Center
10:45AM 42.1333 -73.1681 265° West 351 404 15,100 -1,020 Descending Boston Center
10:46AM 42.1264 -73.2742 265° West 332 382 14,000 -480 Descending Boston Center
10:47AM 42.1150 -73.4028 263° West 337 388 14,100  Climbing Boston Center
10:49AM 42.1053 -73.5539 265° West 337 388 14,100  Level Boston Center
10:50AM 42.0911 -73.7186 263° West 343 395 14,100  Level Boston Center
10:51AM 42.0811 -73.8583 265° West 333 383 14,100  Level Boston Center
10:52AM 42.0708 -73.9950 264° West 333 383 14,100  Level Boston Center
10:53AM 42.0653 -74.0900 266° West 339 390 14,100 -1,080 Level Boston Center
10:54AM 42.0400 -74.2486 258° West 351 404 12,000 -1,980 Descending Boston Center
10:55AM 41.9967 -74.3425 238° Southwest 336 387 10,200 -960 Descending Boston Center
10:56AM 41.9122 -74.4181 214° Southwest 329 379 10,100 -60 Descending Boston Center
10:57AM 41.8361 -74.4742 209° Southwest 347 399 10,100 -420 Level Boston Center
10:58AM 41.7539 -74.5272 206° Southwest 322 371 9,300 -1,140 Descending Boston Center
10:59AM 41.6806 -74.5414 188° South 299 344 7,900 -1,500 Descending Boston Center
11:00AM 41.5928 -74.5581 188° South 294 338 6,300 -900 Descending Boston Center
11:01AM 41.5258 -74.5697 187° South 294 338 6,100 -120 Descending Boston Center
11:02AM 41.4442 -74.5864 189° South 274 315 6,100 -60 Level Boston Center
11:03AM 41.3500 -74.6167 194° South 282 325 6,000 -180 Descending New York TRACON
11:04AM 41.2667 -74.6333 189° South 284 327 5,800 -900 Descending New York TRACON
11:05AM 41.2000 -74.6000 159° South 284 327 4,300 -900 Descending New York TRACON
11:06AM 41.1333 -74.5500 151° Southeast 270 311 4,000 -360 Descending New York TRACON
11:07AM 41.1167 -74.4500 102° East 294 338 3,600 -540 Descending New York TRACON
11:08AM 41.1000 -74.3500 102° East 284 327 3,000 -300 Descending New York TRACON
11:09AM 41.0667 -74.2500 114° Southeast 279 321 3,000 -480 Level New York TRACON
11:10AM 41.0500 -74.1500 102° East 255 293 2,100 -540 Descending New York TRACON
11:11AM 41.0167 -74.1000 131° Southeast 204 235 2,000 -60 Descending New York TRACON
11:12AM 40.9667 -74.0500 143° Southeast 206 237 2,000 -360 Level New York TRACON
11:13AM 40.9167 -74.0500 180° South 202 232 1,400 -660 Descending New York TRACON
11:14AM 40.8833 -74.0333 159° South 148 170 800 -600 Descending New York TRACON